createdAt,value
2023-03-17T00:00:44.414Z,6.80
2023-03-17T00:01:44.439Z,7.40
2023-03-17T00:02:44.437Z,5.20
2023-03-17T00:03:44.440Z,9.80
2023-03-17T00:04:44.374Z,6.80
2023-03-17T00:05:44.360Z,5.80
2023-03-17T00:06:44.321Z,8.80
2023-03-17T00:07:44.353Z,6.60
2023-03-17T00:08:44.318Z,7.30
2023-03-17T00:09:44.309Z,11.10
2023-03-17T00:10:44.287Z,7.80
2023-03-17T00:11:44.261Z,5.70
2023-03-17T00:12:44.253Z,6.50
2023-03-17T00:13:44.236Z,9.00
2023-03-17T00:14:44.223Z,5.40
2023-03-17T00:15:44.250Z,6.70
2023-03-17T00:16:44.209Z,5.60
2023-03-17T00:17:44.191Z,8.10
2023-03-17T00:18:44.194Z,7.50
2023-03-17T00:19:44.169Z,7.40
2023-03-17T00:20:44.154Z,5.10
2023-03-17T00:21:44.162Z,5.60
2023-03-17T00:22:44.127Z,7.50
2023-03-17T00:23:44.113Z,4.90
2023-03-17T00:24:44.111Z,5.10
2023-03-17T00:25:44.088Z,6.70
2023-03-17T00:26:44.074Z,6.60
2023-03-17T00:27:44.055Z,5.80
2023-03-17T00:28:44.059Z,6.90
2023-03-17T00:29:44.066Z,7.70
2023-03-17T00:30:44.042Z,7.00
2023-03-17T00:31:44.054Z,6.10
2023-03-17T00:32:44.026Z,5.80
2023-03-17T00:33:43.982Z,7.70
2023-03-17T00:34:43.976Z,9.60
2023-03-17T00:35:43.987Z,5.40
2023-03-17T00:36:43.920Z,6.90
2023-03-17T00:37:43.927Z,6.00
2023-03-17T00:38:43.888Z,6.10
2023-03-17T00:39:43.901Z,5.60
2023-03-17T00:40:43.899Z,6.20
2023-03-17T00:41:43.894Z,6.50
2023-03-17T00:42:43.852Z,6.70
2023-03-17T00:43:43.861Z,8.50
2023-03-17T00:44:43.836Z,6.70
2023-03-17T00:45:43.820Z,7.90
2023-03-17T00:46:43.849Z,7.50
2023-03-17T00:47:43.773Z,6.90
2023-03-17T00:48:43.778Z,5.60
2023-03-17T00:49:43.765Z,10.30
2023-03-17T00:50:43.758Z,7.20
2023-03-17T00:51:43.786Z,9.20
2023-03-17T00:52:43.710Z,7.30
2023-03-17T00:53:43.730Z,9.10
2023-03-17T00:54:43.693Z,8.00
2023-03-17T00:55:43.720Z,8.00
2023-03-17T00:56:43.677Z,4.10
2023-03-17T00:57:43.666Z,5.20
2023-03-17T00:58:43.629Z,8.10
2023-03-17T00:59:43.628Z,7.50
2023-03-17T01:00:43.640Z,7.90
2023-03-17T01:01:43.688Z,7.20
2023-03-17T01:02:43.604Z,6.60
2023-03-17T01:03:43.588Z,10.60
2023-03-17T01:04:47.616Z,10.40
2023-03-17T01:05:43.570Z,10.80
2023-03-17T01:06:43.561Z,6.20
2023-03-17T01:07:43.534Z,7.30
2023-03-17T01:08:43.500Z,10.00
2023-03-17T01:09:43.509Z,10.50
2023-03-17T01:10:43.499Z,6.10
2023-03-17T01:11:43.491Z,8.00
2023-03-17T01:12:43.466Z,7.80
2023-03-17T01:13:43.437Z,7.10
2023-03-17T01:14:43.444Z,10.50
2023-03-17T01:15:43.437Z,6.20
2023-03-17T01:16:43.449Z,6.80
2023-03-17T01:17:43.433Z,11.10
2023-03-17T01:18:43.430Z,7.20
2023-03-17T01:19:43.355Z,6.70
2023-03-17T01:20:43.334Z,9.60
2023-03-17T01:21:43.343Z,9.10
2023-03-17T01:22:43.305Z,11.60
2023-03-17T01:23:43.326Z,10.70
2023-03-17T01:24:43.295Z,8.30
2023-03-17T01:25:43.275Z,10.80
2023-03-17T01:26:43.277Z,6.70
2023-03-17T01:27:43.246Z,9.50
2023-03-17T01:28:43.282Z,8.60
2023-03-17T01:29:43.238Z,10.20
2023-03-17T01:30:43.215Z,7.60
2023-03-17T01:31:43.289Z,6.70
2023-03-17T01:32:43.225Z,9.30
2023-03-17T01:33:43.212Z,8.20
2023-03-17T01:34:43.176Z,10.30
2023-03-17T01:35:43.244Z,5.90
2023-03-17T01:36:43.118Z,7.60
2023-03-17T01:37:43.111Z,7.80
2023-03-17T01:38:43.135Z,9.00
2023-03-17T01:39:43.116Z,10.00
2023-03-17T01:40:43.091Z,9.50
2023-03-17T01:41:43.075Z,8.80
2023-03-17T01:42:43.057Z,6.50
2023-03-17T01:43:43.053Z,7.80
2023-03-17T01:44:43.047Z,10.40
2023-03-17T01:45:43.075Z,7.40
2023-03-17T01:46:42.988Z,9.30
2023-03-17T01:47:43.000Z,7.30
2023-03-17T01:48:42.961Z,9.10
2023-03-17T01:49:42.966Z,9.70
2023-03-17T01:50:42.965Z,10.40
2023-03-17T01:51:42.966Z,6.50
2023-03-17T01:52:42.905Z,9.60
2023-03-17T01:53:42.911Z,6.10
2023-03-17T01:54:42.911Z,8.90
2023-03-17T01:55:42.905Z,7.70
2023-03-17T01:56:42.871Z,7.50
2023-03-17T01:57:42.869Z,7.30
2023-03-17T01:58:42.845Z,6.60
2023-03-17T01:59:42.836Z,9.30
2023-03-17T02:00:42.837Z,8.20
2023-03-17T02:01:42.793Z,10.90
2023-03-17T02:02:42.811Z,6.40
2023-03-17T02:03:42.770Z,7.70
2023-03-17T02:04:42.741Z,8.70
2023-03-17T02:05:42.743Z,10.10
2023-03-17T02:06:56.800Z,7.00
2023-03-17T02:07:42.759Z,6.90
2023-03-17T02:08:42.713Z,7.70
2023-03-17T02:09:42.701Z,7.40
2023-03-17T02:10:42.698Z,8.90
2023-03-17T02:11:42.694Z,13.20
2023-03-17T02:12:42.650Z,7.50
2023-03-17T02:13:42.627Z,8.50
2023-03-17T02:14:42.698Z,8.50
2023-03-17T02:15:42.623Z,9.10
2023-03-17T02:16:42.671Z,8.50
2023-03-17T02:17:42.613Z,10.80
2023-03-17T02:18:42.588Z,11.90
2023-03-17T02:19:42.550Z,10.80
2023-03-17T02:20:42.551Z,6.80
2023-03-17T02:21:42.526Z,11.10
2023-03-17T02:22:42.533Z,8.00
2023-03-17T02:23:42.491Z,8.10
2023-03-17T02:24:42.494Z,11.10
2023-03-17T02:25:42.505Z,7.70
2023-03-17T02:26:42.452Z,7.50
2023-03-17T02:27:42.458Z,8.20
2023-03-17T02:28:42.434Z,8.50
2023-03-17T02:29:42.422Z,11.70
2023-03-17T02:30:42.444Z,9.10
2023-03-17T02:31:42.401Z,10.40
2023-03-17T02:32:42.425Z,8.30
2023-03-17T02:33:42.369Z,9.70
2023-03-17T02:34:42.355Z,9.60
2023-03-17T02:35:42.378Z,9.00
2023-03-17T02:36:42.361Z,10.70
2023-03-17T02:37:42.317Z,10.40
2023-03-17T02:38:42.298Z,8.50
2023-03-17T02:39:42.304Z,10.40
2023-03-17T02:40:42.305Z,10.40
2023-03-17T02:41:42.290Z,8.30
2023-03-17T02:42:42.241Z,8.10
2023-03-17T02:43:42.260Z,9.60
2023-03-17T02:44:42.210Z,8.60
2023-03-17T02:45:42.267Z,10.50
2023-03-17T02:46:42.206Z,11.50
2023-03-17T02:47:42.179Z,12.00
2023-03-17T02:48:42.179Z,11.10
2023-03-17T02:49:42.175Z,9.80
2023-03-17T02:50:42.141Z,8.90
2023-03-17T02:51:42.142Z,9.30
2023-03-17T02:52:42.151Z,7.70
2023-03-17T02:53:42.109Z,8.70
2023-03-17T02:54:42.102Z,9.90
2023-03-17T02:55:42.125Z,8.50
2023-03-17T02:56:42.112Z,9.30
2023-03-17T02:57:42.065Z,7.20
2023-03-17T02:58:42.096Z,5.50
2023-03-17T02:59:42.063Z,7.10
2023-03-17T03:00:42.014Z,8.50
2023-03-17T03:01:42.088Z,9.80
2023-03-17T03:02:42.031Z,9.90
2023-03-17T03:03:42.004Z,11.10
2023-03-17T03:04:41.970Z,8.50
2023-03-17T03:05:41.964Z,7.00
2023-03-17T03:06:41.985Z,7.10
2023-03-17T03:07:41.908Z,6.80
2023-03-17T03:08:41.913Z,8.60
2023-03-17T03:09:41.898Z,6.00
2023-03-17T03:10:41.871Z,7.00
2023-03-17T03:11:41.860Z,8.30
2023-03-17T03:12:41.859Z,7.90
2023-03-17T03:13:41.832Z,8.80
2023-03-17T03:14:41.872Z,8.60
2023-03-17T03:15:41.883Z,7.70
2023-03-17T03:16:41.805Z,8.80
2023-03-17T03:17:41.796Z,8.50
2023-03-17T03:18:41.785Z,9.70
2023-03-17T03:19:41.773Z,7.30
2023-03-17T03:20:41.761Z,7.50
2023-03-17T03:21:41.725Z,8.80
2023-03-17T03:22:41.808Z,9.10
2023-03-17T03:23:41.718Z,8.70
2023-03-17T03:24:41.714Z,7.10
2023-03-17T03:25:41.709Z,6.90
2023-03-17T03:26:41.670Z,9.20
2023-03-17T03:27:41.665Z,7.30
2023-03-17T03:28:41.658Z,8.00
2023-03-17T03:29:41.631Z,6.80
2023-03-17T03:30:41.610Z,10.90
2023-03-17T03:31:41.633Z,8.70
2023-03-17T03:32:41.624Z,7.20
2023-03-17T03:33:41.616Z,8.60
2023-03-17T03:34:41.555Z,9.40
2023-03-17T03:35:41.596Z,9.00
2023-03-17T03:36:41.547Z,7.20
2023-03-17T03:37:41.512Z,8.00
2023-03-17T03:38:41.499Z,9.00
2023-03-17T03:39:41.527Z,9.00
2023-03-17T03:40:41.460Z,9.30
2023-03-17T03:41:41.476Z,7.70
2023-03-17T03:42:41.461Z,8.40
2023-03-17T03:43:41.438Z,8.00
2023-03-17T03:44:41.461Z,10.70
2023-03-17T03:45:41.402Z,6.90
2023-03-17T03:46:41.530Z,6.40
2023-03-17T03:47:41.435Z,6.60
2023-03-17T03:48:41.385Z,7.30
2023-03-17T03:49:41.341Z,10.00
2023-03-17T03:50:41.355Z,8.10
2023-03-17T03:51:41.313Z,8.00
2023-03-17T03:52:41.324Z,9.10
2023-03-17T03:53:41.323Z,8.50
2023-03-17T03:54:41.299Z,8.60
2023-03-17T03:55:41.273Z,6.50
2023-03-17T03:56:41.270Z,5.90
2023-03-17T03:57:41.234Z,7.80
2023-03-17T03:58:41.294Z,8.00
2023-03-17T03:59:41.210Z,7.50
2023-03-17T04:00:41.331Z,10.30
2023-03-17T04:01:41.196Z,11.10
2023-03-17T04:02:41.286Z,9.00
2023-03-17T04:03:41.201Z,8.30
2023-03-17T04:04:41.220Z,7.90
2023-03-17T04:05:41.370Z,7.30
2023-03-17T04:06:41.145Z,8.70
2023-03-17T04:07:41.117Z,6.00
2023-03-17T04:08:41.146Z,6.90
2023-03-17T04:09:41.069Z,6.80
2023-03-17T04:10:41.075Z,11.20
2023-03-17T04:11:41.066Z,7.60
2023-03-17T04:12:41.051Z,7.10
2023-03-17T04:13:41.080Z,6.10
2023-03-17T04:14:41.042Z,9.00
2023-03-17T04:15:41.000Z,9.20
2023-03-17T04:16:43.309Z,7.60
2023-03-17T04:17:41.002Z,8.60
2023-03-17T04:18:41.035Z,5.90
2023-03-17T04:19:40.980Z,5.60
2023-03-17T04:20:41.033Z,7.40
2023-03-17T04:21:40.925Z,7.80
2023-03-17T04:22:40.921Z,6.50
2023-03-17T04:23:40.938Z,6.10
2023-03-17T04:24:40.914Z,8.10
2023-03-17T04:25:40.907Z,7.70
2023-03-17T04:26:40.862Z,6.90
2023-03-17T04:27:40.853Z,9.30
2023-03-17T04:28:40.830Z,6.50
2023-03-17T04:29:40.825Z,8.00
2023-03-17T04:30:40.792Z,6.70
2023-03-17T04:31:40.843Z,7.60
2023-03-17T04:32:40.905Z,8.60
2023-03-17T04:33:40.844Z,9.00
2023-03-17T04:34:40.785Z,7.60
2023-03-17T04:35:40.803Z,7.50
2023-03-17T04:36:40.741Z,7.40
2023-03-17T04:37:40.700Z,7.20
2023-03-17T04:38:40.704Z,6.40
2023-03-17T04:39:40.716Z,6.10
2023-03-17T04:40:40.697Z,6.50
2023-03-17T04:41:40.686Z,8.60
2023-03-17T04:42:40.672Z,7.40
2023-03-17T04:43:40.608Z,9.10
2023-03-17T04:44:40.626Z,7.80
2023-03-17T04:45:40.608Z,8.80
2023-03-17T04:46:40.580Z,8.70
2023-03-17T04:47:40.567Z,4.70
2023-03-17T04:48:40.554Z,5.30
2023-03-17T04:49:40.553Z,13.20
2023-03-17T04:50:40.533Z,9.10
2023-03-17T04:51:40.529Z,7.80
2023-03-17T04:52:40.521Z,7.80
2023-03-17T04:53:40.494Z,8.30
2023-03-17T04:54:40.474Z,8.20
2023-03-17T04:55:40.480Z,7.40
2023-03-17T04:56:40.470Z,6.60
2023-03-17T04:57:40.451Z,7.00
2023-03-17T04:58:40.415Z,6.60
2023-03-17T04:59:40.435Z,6.30
2023-03-17T05:00:40.455Z,6.70
2023-03-17T05:01:40.400Z,8.30
2023-03-17T05:02:40.429Z,7.90
2023-03-17T05:03:40.378Z,8.30
2023-03-17T05:04:40.339Z,7.20
2023-03-17T05:05:40.339Z,8.40
2023-03-17T05:06:40.336Z,6.10
2023-03-17T05:07:40.299Z,5.00
2023-03-17T05:08:40.300Z,7.00
2023-03-17T05:09:40.309Z,8.30
2023-03-17T05:10:40.288Z,8.70
2023-03-17T05:11:40.239Z,9.10
2023-03-17T05:12:40.248Z,5.40
2023-03-17T05:13:40.231Z,6.10
2023-03-17T05:14:40.235Z,8.10
2023-03-17T05:15:40.271Z,7.10
2023-03-17T05:16:40.241Z,8.10
2023-03-17T05:17:40.164Z,9.10
2023-03-17T05:18:40.184Z,10.40
2023-03-17T05:19:40.152Z,6.70
2023-03-17T05:20:40.166Z,7.30
2023-03-17T05:21:40.168Z,5.50
2023-03-17T05:22:40.138Z,8.70
2023-03-17T05:23:40.117Z,10.20
2023-03-17T05:24:40.112Z,7.20
2023-03-17T05:25:40.087Z,9.70
2023-03-17T05:26:40.138Z,5.50
2023-03-17T05:27:40.032Z,5.60
2023-03-17T05:28:40.036Z,7.00
2023-03-17T05:29:40.020Z,6.00
2023-03-17T05:30:40.062Z,8.90
2023-03-17T05:31:39.997Z,7.90
2023-03-17T05:32:40.042Z,7.90
2023-03-17T05:33:40.004Z,15.40
2023-03-17T05:34:39.960Z,7.40
2023-03-17T05:35:39.934Z,7.60
2023-03-17T05:36:39.951Z,8.30
2023-03-17T05:37:39.934Z,11.00
2023-03-17T05:38:39.925Z,9.60
2023-03-17T05:39:39.877Z,6.40
2023-03-17T05:40:39.862Z,7.40
2023-03-17T05:41:39.884Z,6.60
2023-03-17T05:42:39.839Z,8.20
2023-03-17T05:43:39.820Z,9.30
2023-03-17T05:44:39.809Z,7.50
2023-03-17T05:45:39.818Z,8.00
2023-03-17T05:46:39.803Z,7.50
2023-03-17T05:47:39.806Z,7.90
2023-03-17T05:48:39.760Z,7.80
2023-03-17T05:49:39.765Z,7.40
2023-03-17T05:50:39.749Z,6.10
2023-03-17T05:51:39.724Z,7.40
2023-03-17T05:52:39.740Z,6.90
2023-03-17T05:53:39.781Z,8.90
2023-03-17T05:54:39.683Z,7.20
2023-03-17T05:55:39.667Z,6.70
2023-03-17T05:56:39.658Z,6.00
2023-03-17T05:57:39.648Z,8.60
2023-03-17T05:58:39.655Z,6.30
2023-03-17T05:59:39.706Z,7.20
2023-03-17T06:00:39.613Z,8.80
2023-03-17T06:01:39.581Z,8.30
2023-03-17T06:02:39.638Z,12.30
2023-03-17T06:03:39.569Z,5.80
2023-03-17T06:04:39.603Z,7.70
2023-03-17T06:05:39.530Z,7.70
2023-03-17T06:06:39.551Z,6.50
2023-03-17T06:07:51.767Z,6.80
2023-03-17T06:08:39.510Z,7.00
2023-03-17T06:09:39.502Z,11.10
2023-03-17T06:10:39.507Z,5.50
2023-03-17T06:11:39.459Z,8.70
2023-03-17T06:12:39.465Z,7.00
2023-03-17T06:13:39.442Z,8.10
2023-03-17T06:14:39.449Z,5.80
2023-03-17T06:15:39.498Z,6.40
2023-03-17T06:16:39.399Z,5.30
2023-03-17T06:17:39.394Z,7.20
2023-03-17T06:18:39.366Z,5.90
2023-03-17T06:19:39.369Z,9.90
2023-03-17T06:20:39.341Z,8.90
2023-03-17T06:21:39.346Z,11.60
2023-03-17T06:22:46.256Z,9.20
2023-03-17T06:23:39.304Z,8.30
2023-03-17T06:24:39.286Z,8.00
2023-03-17T06:25:39.307Z,6.20
2023-03-17T06:26:39.325Z,7.60
2023-03-17T06:27:39.259Z,8.60
2023-03-17T06:28:39.255Z,8.60
2023-03-17T06:29:39.233Z,10.80
2023-03-17T06:30:40.726Z,7.50
2023-03-17T06:31:39.359Z,9.70
2023-03-17T06:32:39.254Z,6.90
2023-03-17T06:33:39.176Z,15.30
2023-03-17T06:34:39.170Z,7.30
2023-03-17T06:35:39.194Z,8.10
2023-03-17T06:36:39.190Z,6.30
2023-03-17T06:37:39.128Z,5.30
2023-03-17T06:38:39.131Z,10.60
2023-03-17T06:39:39.114Z,9.20
2023-03-17T06:40:39.089Z,4.20
2023-03-17T06:41:39.066Z,8.60
2023-03-17T06:42:39.103Z,6.60
2023-03-17T06:43:39.034Z,6.90
2023-03-17T06:44:39.026Z,5.70
2023-03-17T06:45:39.014Z,6.20
2023-03-17T06:46:39.073Z,5.50
2023-03-17T06:47:38.976Z,4.20
2023-03-17T06:48:39.001Z,8.80
2023-03-17T06:49:38.992Z,8.30
2023-03-17T06:50:38.960Z,11.50
2023-03-17T06:51:38.928Z,6.70
2023-03-17T06:52:38.947Z,8.70
2023-03-17T06:53:38.926Z,6.90
2023-03-17T06:54:38.907Z,8.20
2023-03-17T06:55:38.900Z,7.90
2023-03-17T06:56:38.863Z,6.70
2023-03-17T06:57:38.850Z,10.90
2023-03-17T06:58:38.832Z,6.20
2023-03-17T06:59:38.850Z,9.30
2023-03-17T07:00:38.805Z,7.30
2023-03-17T07:01:38.822Z,7.80
2023-03-17T07:02:38.805Z,5.60
2023-03-17T07:03:38.782Z,5.80
2023-03-17T07:04:38.821Z,10.20
2023-03-17T07:05:38.760Z,9.40
2023-03-17T07:06:38.763Z,8.80
2023-03-17T07:07:38.712Z,6.00
2023-03-17T07:08:38.711Z,6.90
2023-03-17T07:09:38.723Z,7.10
2023-03-17T07:10:38.709Z,9.50
2023-03-17T07:11:38.670Z,6.50
2023-03-17T07:12:38.691Z,5.40
2023-03-17T07:13:38.728Z,5.40
2023-03-17T07:14:38.621Z,6.60
2023-03-17T07:15:38.661Z,8.00
2023-03-17T07:16:38.732Z,9.10
2023-03-17T07:17:38.609Z,7.30
2023-03-17T07:18:38.600Z,10.80
2023-03-17T07:19:38.559Z,6.00
2023-03-17T07:20:38.567Z,4.60
2023-03-17T07:21:38.547Z,7.20
2023-03-17T07:22:38.537Z,12.50
2023-03-17T07:23:38.530Z,5.60
2023-03-17T07:24:38.506Z,5.30
2023-03-17T07:25:38.478Z,4.90
2023-03-17T07:26:38.517Z,8.50
2023-03-17T07:27:38.489Z,8.50
2023-03-17T07:28:38.451Z,9.20
2023-03-17T07:29:38.436Z,6.90
2023-03-17T07:30:38.424Z,6.20
2023-03-17T07:31:38.868Z,7.30
2023-03-17T07:32:38.430Z,7.40
2023-03-17T07:33:38.428Z,5.10
2023-03-17T07:34:38.372Z,6.20
2023-03-17T07:35:38.413Z,4.90
2023-03-17T07:36:38.361Z,7.40
2023-03-17T07:37:38.334Z,6.30
2023-03-17T07:38:38.342Z,4.80
2023-03-17T07:39:38.313Z,4.60
2023-03-17T07:40:38.325Z,5.40
2023-03-17T07:41:38.280Z,6.70
2023-03-17T07:42:38.269Z,7.00
2023-03-17T07:43:38.246Z,8.30
2023-03-17T07:44:38.251Z,5.60
2023-03-17T07:45:38.274Z,4.40
2023-03-17T07:46:38.202Z,7.40
2023-03-17T07:47:38.179Z,5.70
2023-03-17T07:48:38.189Z,4.70
2023-03-17T07:49:41.648Z,5.60
2023-03-17T07:50:38.193Z,8.10
2023-03-17T07:51:38.151Z,6.50
2023-03-17T07:52:38.155Z,6.10
2023-03-17T07:53:38.125Z,5.30
2023-03-17T07:54:38.129Z,6.60
2023-03-17T07:55:38.091Z,4.50
2023-03-17T07:56:38.085Z,5.70
2023-03-17T07:57:38.127Z,7.10
2023-03-17T07:58:38.082Z,5.50
2023-03-17T07:59:38.062Z,7.10
2023-03-17T08:00:38.055Z,8.80
2023-03-17T08:01:38.107Z,5.50
2023-03-17T08:02:38.215Z,5.40
2023-03-17T08:03:40.999Z,7.80
2023-03-17T08:04:38.724Z,7.80
2023-03-17T08:05:38.052Z,4.80
2023-03-17T08:06:37.975Z,6.50
2023-03-17T08:07:37.926Z,8.00
2023-03-17T08:08:37.988Z,6.80
2023-03-17T08:09:37.909Z,3.90
2023-03-17T08:10:37.905Z,7.50
2023-03-17T08:11:37.877Z,4.70
2023-03-17T08:12:37.860Z,5.80
2023-03-17T08:13:37.902Z,6.70
2023-03-17T08:14:37.841Z,6.60
2023-03-17T08:15:37.856Z,5.00
2023-03-17T08:16:38.043Z,6.70
2023-03-17T08:17:37.803Z,5.00
2023-03-17T08:18:37.794Z,7.90
2023-03-17T08:19:37.804Z,4.40
2023-03-17T08:20:37.750Z,3.90
2023-03-17T08:21:37.764Z,7.50
2023-03-17T08:22:37.745Z,6.60
2023-03-17T08:23:37.764Z,6.80
2023-03-17T08:24:37.695Z,4.40
2023-03-17T08:25:37.704Z,6.00
2023-03-17T08:26:37.777Z,6.80
2023-03-17T08:27:37.688Z,5.40
2023-03-17T08:28:37.666Z,7.20
2023-03-17T08:29:37.690Z,5.00
2023-03-17T08:30:38.065Z,4.90
2023-03-17T08:31:37.732Z,6.10
2023-03-17T08:32:37.654Z,6.90
2023-03-17T08:33:37.600Z,9.20
2023-03-17T08:34:37.549Z,5.80
2023-03-17T08:35:37.611Z,2.20
2023-03-17T08:36:37.561Z,6.00
2023-03-17T08:37:37.542Z,3.70
2023-03-17T08:38:37.530Z,4.60
2023-03-17T08:39:37.501Z,4.40
2023-03-17T08:40:37.475Z,6.80
2023-03-17T08:41:37.485Z,3.60
2023-03-17T08:42:37.472Z,4.40
2023-03-17T08:43:37.445Z,4.80
2023-03-17T08:44:37.448Z,4.50
2023-03-17T08:45:37.432Z,3.20
2023-03-17T08:46:37.426Z,6.40
2023-03-17T08:47:37.410Z,5.10
2023-03-17T08:48:37.403Z,6.70
2023-03-17T08:49:37.384Z,3.60
2023-03-17T08:50:37.358Z,5.20
2023-03-17T08:51:37.347Z,6.00
2023-03-17T08:52:37.315Z,4.60
2023-03-17T08:53:37.329Z,4.70
2023-03-17T08:54:37.326Z,3.40
2023-03-17T08:55:37.305Z,4.90
2023-03-17T08:56:37.283Z,5.10
2023-03-17T08:57:37.279Z,6.10
2023-03-17T08:58:37.240Z,5.20
2023-03-17T08:59:37.259Z,4.20
2023-03-17T09:00:37.396Z,7.30
2023-03-17T09:01:37.233Z,6.20
2023-03-17T09:02:37.304Z,5.00
2023-03-17T09:03:37.180Z,8.40
2023-03-17T09:04:39.941Z,5.90
2023-03-17T09:05:38.590Z,3.60
2023-03-17T09:06:37.198Z,5.20
2023-03-17T09:07:37.186Z,5.90
2023-03-17T09:08:37.201Z,7.30
2023-03-17T09:09:37.142Z,4.60
2023-03-17T09:10:37.199Z,5.60
2023-03-17T09:11:37.080Z,5.10
2023-03-17T09:12:37.130Z,6.60
2023-03-17T09:13:37.108Z,3.80
2023-03-17T09:14:43.446Z,5.30
2023-03-17T09:15:37.138Z,4.80
2023-03-17T09:16:37.037Z,4.30
2023-03-17T09:17:37.033Z,4.40
2023-03-17T09:18:36.969Z,4.30
2023-03-17T09:19:37.014Z,4.70
2023-03-17T09:20:36.951Z,4.70
2023-03-17T09:21:36.974Z,5.00
2023-03-17T09:22:36.942Z,4.30
2023-03-17T09:23:36.956Z,6.20
2023-03-17T09:24:36.910Z,5.30
2023-03-17T09:25:36.880Z,9.30
2023-03-17T09:26:36.865Z,6.10
2023-03-17T09:27:36.866Z,6.90
2023-03-17T09:28:36.855Z,5.60
2023-03-17T09:29:36.841Z,3.90
2023-03-17T09:30:36.818Z,5.60
2023-03-17T09:31:36.917Z,3.50
2023-03-17T09:32:36.798Z,3.60
2023-03-17T09:33:36.783Z,7.20
2023-03-17T09:34:36.780Z,7.40
2023-03-17T09:35:36.781Z,4.20
2023-03-17T09:36:36.734Z,4.60
2023-03-17T09:37:36.731Z,5.50
2023-03-17T09:38:36.716Z,4.50
2023-03-17T09:39:36.726Z,5.20
2023-03-17T09:40:36.691Z,5.10
2023-03-17T09:41:36.654Z,4.70
2023-03-17T09:42:36.661Z,4.80
2023-03-17T09:43:36.655Z,7.80
2023-03-17T09:44:36.675Z,4.70
2023-03-17T09:45:36.652Z,3.00
2023-03-17T09:46:36.699Z,4.20
2023-03-17T09:47:36.604Z,3.60
2023-03-17T09:48:36.563Z,4.50
2023-03-17T09:49:36.591Z,4.90
2023-03-17T09:50:36.558Z,3.50
2023-03-17T09:51:36.556Z,3.80
2023-03-17T09:52:36.498Z,3.40
2023-03-17T09:53:36.543Z,2.60
2023-03-17T09:54:36.494Z,4.60
2023-03-17T09:55:36.516Z,6.00
2023-03-17T09:56:36.485Z,2.80
2023-03-17T09:57:36.468Z,3.90
2023-03-17T09:58:36.679Z,5.50
2023-03-17T09:59:36.413Z,5.80
2023-03-17T10:00:36.427Z,5.10
2023-03-17T10:01:36.550Z,4.90
2023-03-17T10:02:36.398Z,2.10
2023-03-17T10:03:36.359Z,4.10
2023-03-17T10:04:36.372Z,3.00
2023-03-17T10:05:36.499Z,3.30
2023-03-17T10:06:36.391Z,4.50
2023-03-17T10:07:36.343Z,4.00
2023-03-17T10:08:36.292Z,2.70
2023-03-17T10:09:36.325Z,5.40
2023-03-17T10:10:36.293Z,5.90
2023-03-17T10:11:36.274Z,4.00
2023-03-17T10:12:36.265Z,4.00
2023-03-17T10:13:36.298Z,3.20
2023-03-17T10:14:36.213Z,5.00
2023-03-17T10:15:36.221Z,5.00
2023-03-17T10:16:36.336Z,3.40
2023-03-17T10:17:36.201Z,4.50
2023-03-17T10:18:36.172Z,3.80
2023-03-17T10:19:36.178Z,3.70
2023-03-17T10:20:36.159Z,3.30
2023-03-17T10:21:36.138Z,9.20
2023-03-17T10:22:36.122Z,7.30
2023-03-17T10:23:36.142Z,3.20
2023-03-17T10:24:36.103Z,4.90
2023-03-17T10:25:36.078Z,3.00
2023-03-17T10:26:36.070Z,5.10
2023-03-17T10:27:36.068Z,2.40
2023-03-17T10:28:36.088Z,2.50
2023-03-17T10:29:36.029Z,2.70
2023-03-17T10:30:36.004Z,4.00
2023-03-17T10:31:36.030Z,4.90
2023-03-17T10:32:36.020Z,7.00
2023-03-17T10:33:35.980Z,7.20
2023-03-17T10:34:37.927Z,4.50
2023-03-17T10:35:35.987Z,2.60
2023-03-17T10:36:35.953Z,3.20
2023-03-17T10:37:35.932Z,4.70
2023-03-17T10:38:35.921Z,4.20
2023-03-17T10:39:35.908Z,3.50
2023-03-17T10:40:35.894Z,4.40
2023-03-17T10:41:35.861Z,4.20
2023-03-17T10:42:35.848Z,4.00
2023-03-17T10:43:35.827Z,3.70
2023-03-17T10:44:35.853Z,6.50
2023-03-17T10:45:36.305Z,2.10
2023-03-17T10:46:35.829Z,2.80
2023-03-17T10:47:35.794Z,3.00
2023-03-17T10:48:35.774Z,5.60
2023-03-17T10:49:35.775Z,4.10
2023-03-17T10:50:35.742Z,4.40
2023-03-17T10:51:35.723Z,4.90
2023-03-17T10:52:35.730Z,9.00
2023-03-17T10:53:35.724Z,3.50
2023-03-17T10:54:35.695Z,4.00
2023-03-17T10:55:35.672Z,2.60
2023-03-17T10:56:35.677Z,4.30
2023-03-17T10:57:35.660Z,4.10
2023-03-17T10:58:35.639Z,3.90
2023-03-17T10:59:35.642Z,3.60
2023-03-17T11:00:35.702Z,3.60
2023-03-17T11:01:35.609Z,4.70
2023-03-17T11:02:35.596Z,2.90
2023-03-17T11:03:35.600Z,3.60
2023-03-17T11:04:35.551Z,4.10
2023-03-17T11:05:35.593Z,3.20
2023-03-17T11:06:35.542Z,3.20
2023-03-17T11:07:35.530Z,3.90
2023-03-17T11:08:35.515Z,3.90
2023-03-17T11:09:35.517Z,4.50
2023-03-17T11:10:35.470Z,3.80
2023-03-17T11:11:35.487Z,3.50
2023-03-17T11:12:35.462Z,3.10
2023-03-17T11:13:35.442Z,4.50
2023-03-17T11:14:35.430Z,5.10
2023-03-17T11:15:35.399Z,4.00
2023-03-17T11:16:35.439Z,9.80
2023-03-17T11:17:35.389Z,3.20
2023-03-17T11:18:35.389Z,3.50
2023-03-17T11:19:35.365Z,3.80
2023-03-17T11:20:35.350Z,3.40
2023-03-17T11:21:35.359Z,2.90
2023-03-17T11:22:35.361Z,3.40
2023-03-17T11:23:35.343Z,4.30
2023-03-17T11:24:35.288Z,4.30
2023-03-17T11:25:35.300Z,3.00
2023-03-17T11:26:35.254Z,4.80
2023-03-17T11:27:35.265Z,3.50
2023-03-17T11:28:35.226Z,2.70
2023-03-17T11:29:35.245Z,2.30
2023-03-17T11:30:35.233Z,3.10
2023-03-17T11:31:35.239Z,5.70
2023-03-17T11:32:35.338Z,1.80
2023-03-17T11:33:35.252Z,3.50
2023-03-17T11:34:35.159Z,4.00
2023-03-17T11:35:35.259Z,4.10
2023-03-17T11:36:35.154Z,4.00
2023-03-17T11:37:35.126Z,4.40
2023-03-17T11:38:35.130Z,2.40
2023-03-17T11:39:35.097Z,4.20
2023-03-17T11:40:35.095Z,4.80
2023-03-17T11:41:35.082Z,3.10
2023-03-17T11:42:35.073Z,3.50
2023-03-17T11:43:35.070Z,4.00
2023-03-17T11:44:35.030Z,2.80
2023-03-17T11:45:35.053Z,4.40
2023-03-17T11:46:34.983Z,2.60
2023-03-17T11:47:35.080Z,5.50
2023-03-17T11:48:34.969Z,3.20
2023-03-17T11:49:34.964Z,5.40
2023-03-17T11:50:34.949Z,3.60
2023-03-17T11:51:34.988Z,6.50
2023-03-17T11:52:34.931Z,3.60
2023-03-17T11:53:34.909Z,3.00
2023-03-17T11:54:34.882Z,4.30
2023-03-17T11:55:34.865Z,3.20
2023-03-17T11:56:34.872Z,4.30
2023-03-17T11:57:34.875Z,2.40
2023-03-17T11:58:34.829Z,2.60
2023-03-17T11:59:34.874Z,3.10
2023-03-17T12:00:34.857Z,1.80
2023-03-17T12:01:34.781Z,3.00
2023-03-17T12:02:34.763Z,3.20
2023-03-17T12:03:34.824Z,3.90
2023-03-17T12:04:34.771Z,4.00
2023-03-17T12:05:34.734Z,2.30
2023-03-17T12:06:34.735Z,3.70
2023-03-17T12:07:34.737Z,2.60
2023-03-17T12:08:34.723Z,3.80
2023-03-17T12:09:34.674Z,2.30
2023-03-17T12:10:34.685Z,4.00
2023-03-17T12:11:34.642Z,2.50
2023-03-17T12:12:34.629Z,5.10
2023-03-17T12:13:34.611Z,5.60
2023-03-17T12:14:34.603Z,3.60
2023-03-17T12:15:34.682Z,1.70
2023-03-17T12:16:34.607Z,2.30
2023-03-17T12:17:34.581Z,6.40
2023-03-17T12:18:34.559Z,2.90
2023-03-17T12:19:34.545Z,1.90
2023-03-17T12:20:34.546Z,3.90
2023-03-17T12:21:34.504Z,2.90
2023-03-17T12:22:34.542Z,2.70
2023-03-17T12:23:34.516Z,2.10
2023-03-17T12:24:34.495Z,3.60
2023-03-17T12:25:34.472Z,3.40
2023-03-17T12:26:34.455Z,3.70
2023-03-17T12:27:34.454Z,2.50
2023-03-17T12:28:34.488Z,3.70
2023-03-17T12:29:34.415Z,2.10
2023-03-17T12:30:34.392Z,5.30
2023-03-17T12:31:34.469Z,2.80
2023-03-17T12:32:34.398Z,3.50
2023-03-17T12:33:34.363Z,4.60
2023-03-17T12:34:34.348Z,2.60
2023-03-17T12:35:34.359Z,4.60
2023-03-17T12:36:34.302Z,2.50
2023-03-17T12:37:34.289Z,4.30
2023-03-17T12:38:34.305Z,4.00
2023-03-17T12:39:34.280Z,3.50
2023-03-17T12:40:34.270Z,5.30
2023-03-17T12:41:34.226Z,2.20
2023-03-17T12:42:34.222Z,4.30
2023-03-17T12:43:34.207Z,3.20
2023-03-17T12:44:34.231Z,4.90
2023-03-17T12:45:34.229Z,3.20
2023-03-17T12:46:34.247Z,2.30
2023-03-17T12:47:34.164Z,3.20
2023-03-17T12:48:34.155Z,1.80
2023-03-17T12:49:34.121Z,2.90
2023-03-17T12:50:34.134Z,4.20
2023-03-17T12:51:34.104Z,3.00
2023-03-17T12:52:34.094Z,3.50
2023-03-17T12:53:34.096Z,5.30
2023-03-17T12:54:34.096Z,2.30
2023-03-17T12:55:34.242Z,3.70
2023-03-17T12:56:34.037Z,4.60
2023-03-17T12:57:34.020Z,2.80
2023-03-17T12:58:34.028Z,2.20
2023-03-17T12:59:34.048Z,1.50
2023-03-17T13:00:33.993Z,2.80
2023-03-17T13:01:33.994Z,5.30
2023-03-17T13:02:33.985Z,2.60
2023-03-17T13:03:34.030Z,2.20
2023-03-17T13:04:33.941Z,3.00
2023-03-17T13:05:34.320Z,3.40
2023-03-17T13:06:33.928Z,5.10
2023-03-17T13:07:33.983Z,6.90
2023-03-17T13:08:33.883Z,4.30
2023-03-17T13:09:33.892Z,4.60
2023-03-17T13:10:33.843Z,3.40
2023-03-17T13:11:33.862Z,6.90
2023-03-17T13:12:33.837Z,3.50
2023-03-17T13:13:33.824Z,3.60
2023-03-17T13:14:33.805Z,3.70
2023-03-17T13:15:33.785Z,3.80
2023-03-17T13:16:33.863Z,1.90